Time;durP1;ratioP1;P1;durP2;ratioP2;P2;SDS_P1;SDS_P2;PMS_P1;PMS_P2;Temp;Humidity;BMP_temperature;BMP_pressure;BME280_temperature;BME280_humidity;BME280_pressure;Samples;Min_cycle;Max_cycle;Signal;HPM_P1;HPM_P2
2022/06/19 00:01:40;;;;;;;22.98;8.57;;;12.00;99.90;;;;;;4923366;29;20039;-72
2022/06/19 00:04:07;;;;;;;15.75;7.90;;;11.90;99.90;;;;;;4926313;29;20048;-72
2022/06/19 00:06:35;;;;;;;18.75;8.75;;;12.00;99.90;;;;;;4911689;29;20031;-71
2022/06/19 00:09:02;;;;;;;16.75;8.10;;;12.00;99.90;;;;;;4915443;29;20032;-73
2022/06/19 00:11:28;;;;;;;16.00;8.00;;;12.00;99.90;;;;;;4909827;29;20201;-71
2022/06/19 00:13:54;;;;;;;14.75;7.80;;;12.00;99.90;;;;;;4922034;29;20602;-72
2022/06/19 00:16:19;;;;;;;14.95;7.47;;;12.00;99.90;;;;;;4921466;29;20048;-72
2022/06/19 00:18:45;;;;;;;18.55;8.85;;;12.10;99.90;;;;;;4916436;29;20040;-72
2022/06/19 00:21:11;;;;;;;21.55;9.50;;;12.10;99.90;;;;;;4913658;29;20047;-72
2022/06/19 00:23:37;;;;;;;16.17;8.77;;;12.20;99.90;;;;;;4923747;29;20554;-72
2022/06/19 00:26:03;;;;;;;18.27;9.07;;;12.20;99.90;;;;;;4924142;29;20091;-72
2022/06/19 00:28:29;;;;;;;20.35;8.65;;;12.20;99.90;;;;;;4919839;29;20055;-72
2022/06/19 00:30:55;;;;;;;19.83;9.15;;;12.20;99.90;;;;;;4907560;29;20496;-72
2022/06/19 00:33:20;;;;;;;14.30;9.23;;;12.20;99.90;;;;;;4925149;29;20488;-72
2022/06/19 00:35:47;;;;;;;19.30;8.30;;;12.30;99.90;;;;;;4908779;29;20035;-72
2022/06/19 00:38:13;;;;;;;17.75;9.15;;;12.20;99.90;;;;;;4913561;29;20038;-72
2022/06/19 00:40:39;;;;;;;13.02;8.20;;;12.20;99.90;;;;;;4912503;29;20037;-72
2022/06/19 00:43:05;;;;;;;18.80;8.45;;;12.30;99.90;;;;;;4922927;29;20126;-73
2022/06/19 00:45:41;;;;;;;18.13;9.68;;;12.30;99.90;;;;;;4925509;29;20036;-72
2022/06/19 00:48:14;;;;;;;16.48;9.07;;;12.30;99.90;;;;;;4920223;29;20035;-72
2022/06/19 00:50:43;;;;;;;17.17;9.48;;;12.30;99.90;;;;;;4910304;29;20036;-72
2022/06/19 00:53:15;;;;;;;17.40;9.00;;;12.40;99.90;;;;;;4925096;29;20095;-73
2022/06/19 00:55:46;;;;;;;18.55;9.75;;;12.40;99.90;;;;;;4917321;29;20032;-72
2022/06/19 00:58:24;;;;;;;19.27;10.05;;;12.40;99.90;;;;;;4924197;29;20146;-72
2022/06/19 01:00:56;;;;;;;16.77;8.75;;;12.40;99.90;;;;;;4925827;29;20061;-72
2022/06/19 01:03:28;;;;;;;16.17;9.18;;;12.40;99.90;;;;;;4922293;29;20039;-72
2022/06/19 01:05:54;;;;;;;19.10;10.13;;;12.40;99.90;;;;;;4923018;29;20032;-72
2022/06/19 01:08:19;;;;;;;18.25;10.75;;;12.40;99.90;;;;;;4909215;29;20046;-73
2022/06/19 01:10:48;;;;;;;23.70;10.95;;;12.40;99.90;;;;;;4914173;29;20115;-72
2022/06/19 01:13:17;;;;;;;16.48;10.93;;;12.50;99.90;;;;;;4920978;29;20086;-73
2022/06/19 01:15:42;;;;;;;24.23;12.82;;;12.50;99.90;;;;;;4912044;29;20056;-73
2022/06/19 01:18:11;;;;;;;23.92;12.32;;;12.50;99.90;;;;;;4914377;29;20131;-74
2022/06/19 01:20:38;;;;;;;19.80;10.30;;;12.50;99.90;;;;;;4916807;29;20035;-72
2022/06/19 01:23:47;;;;;;;24.20;10.48;;;12.40;99.90;;;;;;4916994;29;20484;-73
2022/06/19 01:26:14;;;;;;;15.70;7.85;;;12.30;99.90;;;;;;4913871;29;20076;-72
2022/06/19 01:28:54;;;;;;;13.00;6.85;;;12.20;99.90;;;;;;4924197;29;20039;-72
2022/06/19 01:31:29;;;;;;;15.80;7.07;;;12.20;99.90;;;;;;4910463;29;20047;-73
2022/06/19 01:34:26;;;;;;;16.65;7.10;;;12.10;99.90;;;;;;4914172;29;20039;-73
2022/06/19 01:36:49;;;;;;;19.55;6.78;;;12.00;99.90;;;;;;4913631;29;20059;-73
2022/06/19 01:39:15;;;;;;;11.65;4.43;;;11.80;99.90;;;;;;4922552;29;20046;-73
2022/06/19 01:41:41;;;;;;;14.57;4.97;;;11.80;99.90;;;;;;4909331;29;20484;-73
2022/06/19 01:44:07;;;;;;;9.60;3.80;;;11.70;99.90;;;;;;4911818;29;20055;-74
2022/06/19 01:46:32;;;;;;;9.68;3.60;;;11.60;99.90;;;;;;4924086;29;20085;-73
2022/06/19 01:48:58;;;;;;;12.90;3.88;;;11.50;99.90;;;;;;4924994;29;20713;-73
2022/06/19 01:51:24;;;;;;;11.30;3.00;;;11.50;99.90;;;;;;4916438;29;20035;-74
2022/06/19 01:54:06;;;;;;;5.20;2.63;;;11.40;99.90;;;;;;4913863;29;20055;-73
2022/06/19 01:56:32;;;;;;;11.95;2.90;;;11.30;99.90;;;;;;4912370;29;20036;-74
2022/06/19 01:59:10;;;;;;;4.18;1.98;;;11.30;99.90;;;;;;4905171;29;20067;-74
2022/06/19 02:01:37;;;;;;;9.40;2.10;;;11.20;99.90;;;;;;4921695;29;20046;-73
2022/06/19 02:04:05;;;;;;;5.72;1.90;;;11.10;99.90;;;;;;4908653;29;20114;-73
2022/06/19 02:06:40;;;;;;;6.35;1.98;;;11.10;99.90;;;;;;4915225;29;20024;-74
2022/06/19 02:09:06;;;;;;;7.05;1.92;;;10.90;99.90;;;;;;4918392;29;20547;-73
2022/06/19 02:11:34;;;;;;;8.07;1.73;;;10.90;99.90;;;;;;4917805;29;20539;-73
2022/06/19 02:14:02;;;;;;;8.13;2.00;;;10.90;99.90;;;;;;4918932;29;20683;-73
2022/06/19 02:16:29;;;;;;;8.40;1.70;;;10.90;99.90;;;;;;4909131;29;20588;-72
2022/06/19 02:18:55;;;;;;;7.43;2.10;;;10.80;99.90;;;;;;4916274;29;20036;-73
2022/06/19 02:21:38;;;;;;;4.30;1.42;;;10.80;99.90;;;;;;4920015;29;20063;-73
2022/06/19 02:24:07;;;;;;;5.53;2.22;;;10.80;99.90;;;;;;4912171;29;20036;-74
2022/06/19 02:26:36;;;;;;;6.20;2.33;;;10.80;99.90;;;;;;4922018;29;20032;-74
2022/06/19 02:29:03;;;;;;;9.30;2.10;;;10.80;99.90;;;;;;4920754;29;20028;-74
2022/06/19 02:31:31;;;;;;;7.57;3.40;;;10.80;99.90;;;;;;4917434;29;20058;-74
2022/06/19 02:34:03;;;;;;;6.18;1.75;;;10.80;99.90;;;;;;4926487;29;20035;-73
2022/06/19 02:36:42;;;;;;;6.00;1.90;;;10.90;99.90;;;;;;4922318;29;20495;-74
2022/06/19 02:39:26;;;;;;;7.07;2.08;;;10.90;99.90;;;;;;4921836;29;20102;-73
2022/06/19 02:42:03;;;;;;;6.07;2.13;;;10.90;99.90;;;;;;4923832;29;20032;-73
2022/06/19 02:44:32;;;;;;;8.85;2.97;;;10.90;99.90;;;;;;4931956;29;20024;-73
2022/06/19 02:46:57;;;;;;;5.25;2.42;;;10.90;99.90;;;;;;4924594;29;20506;-74
2022/06/19 02:49:23;;;;;;;5.18;2.45;;;10.80;99.90;;;;;;4914111;29;20035;-73
2022/06/19 02:51:49;;;;;;;8.07;3.65;;;10.80;99.90;;;;;;4915612;29;20035;-73
2022/06/19 02:54:14;;;;;;;7.68;3.05;;;10.80;99.90;;;;;;4928473;29;20071;-74
2022/06/19 02:56:40;;;;;;;10.60;3.00;;;10.80;99.90;;;;;;4926297;29;20032;-74
2022/06/19 02:59:05;;;;;;;10.05;2.60;;;10.80;99.90;;;;;;4927563;29;20043;-73
2022/06/19 03:01:31;;;;;;;7.55;3.00;;;10.80;99.90;;;;;;4928680;29;20395;-73
2022/06/19 03:03:57;;;;;;;5.15;2.85;;;10.80;99.90;;;;;;4928588;29;20110;-74
2022/06/19 03:06:22;;;;;;;7.65;3.30;;;10.80;99.90;;;;;;4927025;29;20539;-74
2022/06/19 03:08:48;;;;;;;6.80;2.88;;;10.80;99.90;;;;;;4920603;29;20090;-74
2022/06/19 03:11:14;;;;;;;7.45;2.88;;;10.70;99.90;;;;;;4927183;29;20058;-73
2022/06/19 03:13:39;;;;;;;8.32;2.88;;;10.70;99.90;;;;;;4923519;29;20122;-74
2022/06/19 03:16:07;;;;;;;7.03;2.95;;;10.60;99.90;;;;;;4928086;29;20597;-74
2022/06/19 03:18:34;;;;;;;6.60;3.10;;;10.60;99.90;;;;;;4928201;29;20031;-74
2022/06/19 03:21:00;;;;;;;7.95;3.17;;;10.60;99.90;;;;;;4928378;29;20059;-74
2022/06/19 03:23:25;;;;;;;5.40;2.72;;;10.60;99.90;;;;;;4927063;29;20086;-75
2022/06/19 03:25:52;;;;;;;6.20;2.70;;;10.70;99.90;;;;;;4928047;29;20515;-74
2022/06/19 03:28:18;;;;;;;6.68;3.42;;;10.60;99.90;;;;;;4925467;29;20067;-74
2022/06/19 03:30:43;;;;;;;6.85;3.50;;;10.70;99.90;;;;;;4913650;29;20127;-74
2022/06/19 03:33:09;;;;;;;7.60;3.25;;;10.60;99.90;;;;;;4926268;29;20114;-75
2022/06/19 03:35:35;;;;;;;8.20;3.55;;;10.70;99.90;;;;;;4926678;29;20555;-74
2022/06/19 03:38:00;;;;;;;5.82;3.25;;;10.70;99.90;;;;;;4922372;29;20023;-74
2022/06/19 03:40:26;;;;;;;6.53;3.35;;;10.60;99.90;;;;;;4921918;29;20574;-74
2022/06/19 03:42:52;;;;;;;8.13;3.92;;;10.60;99.90;;;;;;4925662;29;20039;-74
2022/06/19 03:45:17;;;;;;;8.30;3.42;;;10.60;99.90;;;;;;4923834;29;20063;-74
2022/06/19 03:47:43;;;;;;;9.48;4.13;;;10.70;99.90;;;;;;4915876;29;20076;-74
2022/06/19 03:50:16;;;;;;;5.97;3.40;;;10.70;99.90;;;;;;4920441;29;20039;-74
2022/06/19 03:52:41;;;;;;;9.57;3.90;;;10.70;99.90;;;;;;4918939;29;20048;-74
2022/06/19 03:55:08;;;;;;;5.65;3.10;;;10.80;99.90;;;;;;4912539;29;20103;-74
2022/06/19 03:57:33;;;;;;;12.13;3.22;;;10.80;99.90;;;;;;4920661;29;20115;-74
2022/06/19 03:59:59;;;;;;;9.07;3.40;;;10.70;99.90;;;;;;4919903;29;20657;-74
2022/06/19 04:02:25;;;;;;;11.07;3.47;;;10.70;99.90;;;;;;4907757;29;20051;-73
2022/06/19 04:04:50;;;;;;;10.18;3.72;;;10.70;99.90;;;;;;4924331;29;20486;-73
2022/06/19 04:07:16;;;;;;;8.88;3.35;;;10.70;99.90;;;;;;4922843;29;20031;-74
2022/06/19 04:09:43;;;;;;;7.53;3.22;;;10.70;99.90;;;;;;4925641;29;20412;-74
2022/06/19 04:12:09;;;;;;;6.85;3.03;;;10.70;99.90;;;;;;4925831;29;20503;-74
2022/06/19 04:14:36;;;;;;;7.13;3.08;;;10.70;99.90;;;;;;4924869;29;20077;-73
2022/06/19 04:17:03;;;;;;;11.77;3.35;;;10.80;99.90;;;;;;4925526;29;20114;-74
2022/06/19 04:19:29;;;;;;;7.18;2.80;;;10.90;99.90;;;;;;4925881;29;20062;-74
2022/06/19 04:21:55;;;;;;;8.68;3.20;;;11.00;99.90;;;;;;4908464;29;20056;-74
2022/06/19 04:24:21;;;;;;;10.30;3.78;;;11.00;99.90;;;;;;4917088;29;20044;-74
2022/06/19 04:26:47;;;;;;;9.38;3.47;;;11.00;99.90;;;;;;4923042;29;20175;-74
2022/06/19 04:29:14;;;;;;;6.40;3.08;;;11.00;99.90;;;;;;4926150;29;20049;-74
2022/06/19 04:31:40;;;;;;;9.25;3.30;;;11.00;99.90;;;;;;4923692;29;20127;-74
2022/06/19 04:34:06;;;;;;;7.32;3.58;;;11.00;99.90;;;;;;4925865;29;20035;-74
2022/06/19 04:36:32;;;;;;;12.07;4.10;;;10.90;99.90;;;;;;4925213;29;20042;-74
2022/06/19 04:38:58;;;;;;;10.15;3.65;;;10.90;99.90;;;;;;4915597;29;20059;-74
2022/06/19 04:41:28;;;;;;;8.85;3.05;;;10.90;99.90;;;;;;4920162;29;20035;-74
2022/06/19 04:43:56;;;;;;;8.32;3.45;;;10.90;99.90;;;;;;4912401;29;20070;-74
2022/06/19 04:46:22;;;;;;;7.30;2.60;;;11.00;99.90;;;;;;4923850;29;20408;-74
2022/06/19 04:48:48;;;;;;;8.18;3.10;;;11.00;99.90;;;;;;4923467;29;20031;-74
2022/06/19 04:51:15;;;;;;;7.30;2.90;;;11.00;99.90;;;;;;4917470;29;20035;-74
2022/06/19 04:53:40;;;;;;;8.82;2.67;;;11.10;99.90;;;;;;4924361;29;20038;-74
2022/06/19 04:56:07;;;;;;;6.90;2.05;;;11.10;99.90;;;;;;4924220;29;20043;-75
2022/06/19 04:58:34;;;;;;;9.52;2.72;;;11.20;99.90;;;;;;4911316;29;20527;-74
2022/06/19 05:01:01;;;;;;;10.65;1.98;;;11.10;99.90;;;;;;4919979;29;20043;-74
2022/06/19 05:03:27;;;;;;;5.03;2.50;;;11.10;99.90;;;;;;4915232;29;20034;-74
2022/06/19 05:05:53;;;;;;;10.30;2.83;;;11.10;99.90;;;;;;4924398;29;20041;-74
2022/06/19 05:08:20;;;;;;;11.57;2.90;;;11.10;99.90;;;;;;4918091;29;20112;-74
2022/06/19 05:10:46;;;;;;;12.77;2.67;;;11.20;99.90;;;;;;4920114;29;20475;-74
2022/06/19 05:13:21;;;;;;;12.05;3.25;;;11.20;99.90;;;;;;4910685;29;20055;-74
2022/06/19 05:15:49;;;;;;;9.32;2.40;;;11.20;99.90;;;;;;4922637;29;20139;-74
2022/06/19 05:18:16;;;;;;;9.20;2.20;;;11.30;99.90;;;;;;4925602;29;20841;-74
2022/06/19 05:20:41;;;;;;;11.07;2.30;;;11.30;99.90;;;;;;4924473;29;20054;-74
2022/06/19 05:23:09;;;;;;;8.25;2.20;;;11.40;99.90;;;;;;4924747;29;20503;-74
2022/06/19 05:25:35;;;;;;;10.60;2.20;;;11.50;99.90;;;;;;4925202;29;20032;-74
2022/06/19 05:28:01;;;;;;;7.68;2.30;;;11.50;99.90;;;;;;4924629;29;20118;-74
2022/06/19 05:30:26;;;;;;;8.75;2.45;;;11.60;99.90;;;;;;4924914;29;20126;-73
2022/06/19 05:32:52;;;;;;;11.85;2.72;;;11.60;99.90;;;;;;4924139;29;20130;-74
2022/06/19 05:35:18;;;;;;;13.95;2.80;;;11.70;99.90;;;;;;4925265;29;20501;-74
2022/06/19 05:37:44;;;;;;;9.95;2.53;;;11.80;99.90;;;;;;4924087;29;20034;-74
2022/06/19 05:40:10;;;;;;;8.43;1.95;;;11.90;99.90;;;;;;4925056;29;20040;-73
2022/06/19 05:42:36;;;;;;;10.15;2.25;;;11.90;99.90;;;;;;4911800;29;20448;-74
2022/06/19 05:45:03;;;;;;;14.40;3.38;;;12.00;99.90;;;;;;4918973;29;20036;-73
2022/06/19 05:47:29;;;;;;;8.63;2.35;;;12.00;99.90;;;;;;4922722;29;20581;-73
2022/06/19 05:49:56;;;;;;;7.63;2.13;;;12.00;99.90;;;;;;4920905;29;20107;-74
2022/06/19 05:52:24;;;;;;;8.90;2.30;;;12.00;99.90;;;;;;4906236;29;20036;-74
2022/06/19 05:54:51;;;;;;;11.27;2.45;;;12.00;99.90;;;;;;4920027;29;20052;-74
2022/06/19 05:57:17;;;;;;;10.15;2.10;;;12.10;99.90;;;;;;4917156;29;20039;-74
2022/06/19 05:59:43;;;;;;;11.30;2.60;;;12.10;99.90;;;;;;4923810;29;20088;-74
2022/06/19 06:02:13;;;;;;;8.25;2.58;;;12.00;99.90;;;;;;4919593;29;20535;-73
2022/06/19 06:04:39;;;;;;;9.98;2.55;;;12.00;99.90;;;;;;4921189;29;20055;-73
2022/06/19 06:07:08;;;;;;;14.23;2.95;;;12.10;99.90;;;;;;4926758;29;20031;-74
2022/06/19 06:09:35;;;;;;;16.42;3.10;;;12.20;99.90;;;;;;4927898;29;20059;-74
2022/06/19 06:12:02;;;;;;;7.93;2.50;;;12.10;99.90;;;;;;4923034;29;20041;-73
2022/06/19 06:14:28;;;;;;;12.60;2.60;;;12.20;99.90;;;;;;4914545;29;20043;-73
2022/06/19 06:16:53;;;;;;;10.65;3.15;;;12.20;99.90;;;;;;4921601;29;20448;-74
2022/06/19 06:19:19;;;;;;;11.50;2.58;;;12.20;99.90;;;;;;4925304;29;20031;-74
2022/06/19 06:21:45;;;;;;;12.07;2.80;;;12.30;99.90;;;;;;4922270;29;20066;-73
2022/06/19 06:24:13;;;;;;;10.43;3.22;;;12.40;99.90;;;;;;4924522;29;20061;-74
2022/06/19 06:26:39;;;;;;;10.38;2.58;;;12.40;99.90;;;;;;4918358;29;20042;-74
2022/06/19 06:29:04;;;;;;;15.35;2.95;;;12.50;99.90;;;;;;4913934;29;20659;-73
2022/06/19 06:31:30;;;;;;;11.00;3.08;;;12.60;99.90;;;;;;4924563;29;20027;-73
2022/06/19 06:33:57;;;;;;;11.50;2.70;;;12.60;99.90;;;;;;4928133;29;20395;-73
2022/06/19 06:36:23;;;;;;;13.45;3.20;;;12.60;99.90;;;;;;4919782;29;20476;-74
2022/06/19 06:38:49;;;;;;;18.08;3.40;;;12.70;99.90;;;;;;4926151;29;20035;-74
2022/06/19 06:41:14;;;;;;;12.55;3.33;;;12.70;99.90;;;;;;4925347;29;20152;-74
2022/06/19 06:43:44;;;;;;;10.48;3.53;;;12.70;99.90;;;;;;4923170;29;20103;-74
2022/06/19 06:46:18;;;;;;;12.48;2.80;;;12.70;99.90;;;;;;4918049;29;20036;-74
2022/06/19 06:48:44;;;;;;;10.10;2.75;;;12.70;99.90;;;;;;4912725;29;20036;-74
2022/06/19 06:51:13;;;;;;;11.95;3.28;;;12.80;99.90;;;;;;4920876;29;20035;-74
2022/06/19 06:53:38;;;;;;;12.48;3.35;;;12.80;99.90;;;;;;4918057;29;20119;-74
2022/06/19 06:56:05;;;;;;;14.70;5.35;;;12.90;99.90;;;;;;4915668;29;20130;-73
2022/06/19 06:58:31;;;;;;;17.42;4.45;;;13.10;99.90;;;;;;4914155;29;20020;-74
2022/06/19 07:00:57;;;;;;;17.80;4.30;;;13.20;99.90;;;;;;4923941;29;20047;-75
2022/06/19 07:03:23;;;;;;;11.45;3.55;;;13.40;99.90;;;;;;4926141;29;20028;-74
2022/06/19 07:05:49;;;;;;;12.48;3.88;;;13.60;99.90;;;;;;4926826;29;20471;-74
2022/06/19 07:08:14;;;;;;;14.20;2.90;;;13.90;99.90;;;;;;4924374;29;20039;-74
2022/06/19 07:10:40;;;;;;;12.93;4.63;;;14.20;99.90;;;;;;4918571;29;20036;-74
2022/06/19 07:13:06;;;;;;;10.07;3.70;;;14.50;99.90;;;;;;4925558;29;20055;-74
2022/06/19 07:15:33;;;;;;;18.58;3.97;;;14.70;99.90;;;;;;4925842;29;20051;-74
2022/06/19 07:17:59;;;;;;;8.70;3.20;;;15.00;99.90;;;;;;4924941;29;20035;-73
2022/06/19 07:20:24;;;;;;;11.00;2.92;;;15.40;99.90;;;;;;4928729;29;20058;-75
2022/06/19 07:22:50;;;;;;;8.13;2.80;;;15.70;99.90;;;;;;4920800;29;20514;-75
2022/06/19 07:25:18;;;;;;;11.25;4.45;;;15.90;99.90;;;;;;4919472;29;20028;-74
2022/06/19 07:27:44;;;;;;;13.40;4.03;;;16.00;99.90;;;;;;4904406;29;20474;-74
2022/06/19 07:30:15;;;;;;;12.70;3.35;;;16.30;99.90;;;;;;4913819;29;20043;-75
2022/06/19 07:32:41;;;;;;;;;;;16.70;99.90;;;;;;4914185;29;20041;-74
2022/06/19 07:35:07;;;;;;;10.43;2.80;;;17.80;99.90;;;;;;4906075;29;19926;-72
2022/06/19 07:37:33;;;;;;;11.85;2.92;;;18.30;99.90;;;;;;4909165;29;20114;-74
2022/06/19 07:39:58;;;;;;;10.27;3.20;;;18.40;99.90;;;;;;4907840;29;20048;-74
2022/06/19 07:42:24;;;;;;;8.15;2.88;;;18.40;99.90;;;;;;4908678;29;20035;-73
2022/06/19 07:44:49;;;;;;;8.40;3.00;;;19.00;99.90;;;;;;4913022;29;20040;-74
2022/06/19 07:50:12;;;;;;;14.07;2.95;;;20.00;99.90;;;;;;4926900;29;20066;-73
2022/06/19 07:52:46;;;;;;;10.73;2.55;;;22.70;91.20;;;;;;4919186;29;20027;-74
2022/06/19 07:55:15;;;;;;;7.60;2.33;;;24.30;71.70;;;;;;4922879;29;20043;-73
2022/06/19 07:57:41;;;;;;;7.85;2.80;;;23.70;70.50;;;;;;4925532;29;20035;-74
2022/06/19 08:00:16;;;;;;;9.32;2.38;;;22.50;79.00;;;;;;4924377;29;20040;-73
2022/06/19 08:02:45;;;;;;;8.88;2.72;;;21.50;90.20;;;;;;4917524;29;20601;-73
2022/06/19 08:05:11;;;;;;;10.68;2.33;;;20.80;89.70;;;;;;4924942;29;20043;-73
2022/06/19 08:07:38;;;;;;;8.50;2.53;;;20.10;93.60;;;;;;4924061;29;20044;-73
2022/06/19 08:10:06;;;;;;;10.30;2.33;;;20.00;96.20;;;;;;4929079;29;20027;-73
2022/06/19 08:12:32;;;;;;;10.50;2.35;;;20.90;97.00;;;;;;4924822;29;20115;-73
2022/06/19 08:14:57;;;;;;;10.40;2.50;;;22.00;90.20;;;;;;4922693;29;20066;-73
2022/06/19 08:17:23;;;;;;;8.23;2.30;;;20.70;90.60;;;;;;4924538;29;20091;-72
2022/06/19 08:19:48;;;;;;;10.73;2.80;;;22.00;92.80;;;;;;4907748;29;20111;-72
2022/06/19 08:22:14;;;;;;;10.43;2.10;;;21.80;85.90;;;;;;4915448;29;20620;-73
2022/06/19 08:24:40;;;;;;;12.95;2.85;;;23.40;74.50;;;;;;4911290;29;20040;-73
2022/06/19 08:27:05;;;;;;;8.32;2.22;;;24.90;70.80;;;;;;4912603;29;20035;-73
2022/06/19 08:29:32;;;;;;;10.23;2.17;;;26.30;54.30;;;;;;4921991;29;20032;-73
2022/06/19 08:31:58;;;;;;;7.75;1.90;;;26.70;49.50;;;;;;4920548;29;20071;-74
2022/06/19 08:34:24;;;;;;;8.80;1.90;;;29.30;49.20;;;;;;4921922;29;20123;-71
2022/06/19 08:36:50;;;;;;;10.82;1.90;;;30.20;45.90;;;;;;4918091;29;20019;-74
2022/06/19 08:39:17;;;;;;;6.53;1.88;;;31.30;44.30;;;;;;4923785;29;20098;-73
2022/06/19 08:42:04;;;;;;;8.43;2.38;;;31.80;39.90;;;;;;4919593;29;20122;-72
2022/06/19 08:45:03;;;;;;;6.32;1.48;;;31.50;38.30;;;;;;4922186;29;20264;-73
2022/06/19 08:47:50;;;;;;;9.07;2.30;;;31.50;37.00;;;;;;4922587;29;20059;-74
2022/06/19 08:50:34;;;;;;;8.57;1.63;;;31.70;39.60;;;;;;4907249;29;20103;-75
2022/06/19 08:53:12;;;;;;;7.18;2.10;;;31.40;37.90;;;;;;4918367;29;20491;-73
2022/06/19 08:55:59;;;;;;;5.45;1.48;;;31.70;38.90;;;;;;4919973;29;20098;-72
2022/06/19 08:58:46;;;;;;;10.02;2.15;;;30.20;37.50;;;;;;4917237;29;20635;-74
2022/06/19 09:02:00;;;;;;;6.95;1.65;;;29.50;38.70;;;;;;4914510;29;20456;-73
2022/06/19 09:07:59;;;;;;;6.93;1.95;;;29.80;40.60;;;;;;4853013;29;20055;-74
2022/06/19 09:10:55;;;;;;;5.86;2.06;;;28.90;37.90;;;;;;4783861;28;10000571;-72
2022/06/19 09:13:30;;;;;;;8.35;2.05;;;26.70;41.90;;;;;;4904246;29;20252;-72
2022/06/19 09:16:26;;;;;;;4.45;1.60;;;23.90;46.50;;;;;;4923705;28;20423;-73
2022/06/19 09:19:14;;;;;;;5.75;1.67;;;22.60;53.70;;;;;;4916826;29;20699;-74
2022/06/19 09:21:59;;;;;;;9.82;1.95;;;21.10;64.90;;;;;;4914928;29;20089;-74
2022/06/19 09:24:59;;;;;;;7.15;1.95;;;20.00;80.60;;;;;;4918559;29;20110;-73
2022/06/19 09:27:34;;;;;;;6.38;1.98;;;19.30;95.10;;;;;;4898168;29;20114;-72
2022/06/19 09:30:13;;;;;;;7.95;1.50;;;18.50;99.90;;;;;;4920551;29;20035;-72
2022/06/19 09:32:52;;;;;;;8.75;2.10;;;17.90;99.90;;;;;;4919573;29;20047;-73
2022/06/19 09:35:49;;;;;;;12.68;2.55;;;17.50;99.90;;;;;;4922451;29;20051;-73
2022/06/19 09:38:38;;;;;;;8.68;1.65;;;17.30;99.90;;;;;;4916391;29;20036;-73
2022/06/19 09:41:10;;;;;;;7.05;1.75;;;17.10;99.90;;;;;;4925653;29;20032;-72
2022/06/19 09:44:08;;;;;;;8.30;1.60;;;17.00;99.90;;;;;;4916324;29;20031;-72
2022/06/19 09:46:43;;;;;;;8.68;2.13;;;16.90;99.90;;;;;;4897633;29;20462;-73
2022/06/19 09:49:27;;;;;;;7.72;1.80;;;17.00;99.90;;;;;;4918111;29;20059;-72
2022/06/19 09:52:16;;;;;;;6.45;1.83;;;16.90;99.90;;;;;;4912218;29;20032;-72
2022/06/19 09:54:56;;;;;;;10.20;1.77;;;17.10;99.90;;;;;;4903003;29;20048;-73
2022/06/19 09:57:34;;;;;;;11.70;1.95;;;17.30;99.90;;;;;;4918974;29;20023;-73
2022/06/19 10:00:13;;;;;;;7.25;1.83;;;17.50;99.90;;;;;;4911604;29;20040;-75
2022/06/19 10:02:54;;;;;;;8.55;1.77;;;17.60;99.90;;;;;;4911754;29;20479;-74
2022/06/19 10:05:38;;;;;;;8.60;1.70;;;17.50;99.90;;;;;;4915777;29;20059;-73
2022/06/19 10:08:15;;;;;;;9.20;1.35;;;17.40;99.90;;;;;;4911760;29;20040;-73
2022/06/19 10:10:41;;;;;;;6.10;1.60;;;17.50;99.90;;;;;;4909614;29;20031;-73
2022/06/19 10:13:30;;;;;;;4.30;1.23;;;17.60;99.90;;;;;;4924045;29;20493;-72
2022/06/19 10:15:58;;;;;;;5.82;1.60;;;17.70;99.90;;;;;;4923760;29;20059;-72
2022/06/19 10:18:30;;;;;;;9.60;1.60;;;17.80;99.90;;;;;;4912299;29;20506;-71
2022/06/19 10:22:13;;;;;;;5.68;1.20;;;18.00;99.90;;;;;;4910734;29;20039;-72
2022/06/19 10:24:33;;;;;;;9.98;1.60;;;17.90;99.90;;;;;;4924628;29;20035;-72
2022/06/19 10:27:07;;;;;;;6.00;1.60;;;17.80;99.90;;;;;;4922657;29;20032;-71
2022/06/19 10:29:55;;;;;;;6.30;1.50;;;17.90;99.90;;;;;;4924651;29;20039;-72
2022/06/19 10:32:43;;;;;;;8.82;1.52;;;18.00;99.90;;;;;;4923990;29;20232;-72
2022/06/19 10:35:46;;;;;;;7.72;1.42;;;17.90;99.40;;;;;;4923647;29;20040;-73
2022/06/19 10:38:22;;;;;;;6.65;1.30;;;17.80;97.70;;;;;;4553500;29;10000628;-73
2022/06/19 10:41:05;;;;;;;6.65;1.30;;;17.80;99.30;;;;;;4921561;29;20023;-73
2022/06/19 10:43:53;;;;;;;6.78;2.42;;;17.80;99.90;;;;;;4905321;29;20040;-73
2022/06/19 10:46:18;;;;;;;7.63;1.38;;;17.60;98.90;;;;;;4916023;29;20106;-74
2022/06/19 10:49:01;;;;;;;6.38;1.42;;;17.50;99.90;;;;;;4925011;29;20127;-74
2022/06/19 10:51:55;;;;;;;7.03;1.38;;;17.60;99.90;;;;;;4923812;29;20028;-74
2022/06/19 10:54:21;;;;;;;6.22;1.20;;;17.70;99.90;;;;;;4905995;29;20503;-74
2022/06/19 10:57:01;;;;;;;10.68;1.27;;;17.40;99.90;;;;;;4922781;29;20059;-74
2022/06/19 10:59:27;;;;;;;9.93;1.30;;;17.40;99.90;;;;;;4922238;29;20494;-74
2022/06/19 11:05:24;;;;;;;7.18;0.95;;;17.10;99.90;;;;;;4909298;29;20054;-74
2022/06/19 11:07:50;;;;;;;8.40;1.58;;;16.90;99.90;;;;;;4924269;29;20462;-73
2022/06/19 11:10:40;;;;;;;6.07;1.10;;;16.80;99.90;;;;;;4925164;29;20039;-73
2022/06/19 11:13:06;;;;;;;7.03;1.02;;;16.90;99.90;;;;;;4924287;29;20030;-73
2022/06/19 11:15:31;;;;;;;9.07;1.00;;;17.10;99.90;;;;;;4921617;29;20110;-75
2022/06/19 11:18:20;;;;;;;5.88;1.63;;;17.30;99.90;;;;;;4923243;29;20035;-73
2022/06/19 11:21:06;;;;;;;9.18;1.35;;;17.90;99.90;;;;;;4914853;29;20035;-73
2022/06/19 11:23:34;;;;;;;8.75;1.42;;;18.60;99.90;;;;;;4920220;29;20036;-72
2022/06/19 11:26:07;;;;;;;6.88;1.23;;;19.50;99.90;;;;;;4913599;29;20043;-73
2022/06/19 11:28:47;;;;;;;5.82;0.80;;;20.50;94.70;;;;;;4923188;29;20035;-74
2022/06/19 11:31:18;;;;;;;5.40;0.98;;;21.30;96.60;;;;;;4920748;29;20503;-72
2022/06/19 11:33:44;;;;;;;;;;;21.50;91.40;;;;;;4923758;29;20059;-73
2022/06/19 11:36:25;;;;;;;7.95;1.30;;;21.40;80.80;;;;;;4918595;29;20177;-74
2022/06/19 11:38:54;;;;;;;2.88;0.60;;;21.20;81.00;;;;;;4919934;29;20043;-73
2022/06/19 11:41:35;;;;;;;3.97;1.30;;;20.90;76.90;;;;;;4923150;29;20744;-73
2022/06/19 11:44:03;;;;;;;;;;;20.30;80.90;;;;;;4918531;29;20140;-72
2022/06/19 11:46:30;;;;;;;3.65;1.02;;;20.00;94.60;;;;;;4922331;29;20371;-71
2022/06/19 11:49:16;;;;;;;5.90;1.25;;;19.90;97.50;;;;;;4921522;29;20046;-73
2022/06/19 11:51:44;;;;;;;4.88;1.20;;;20.00;92.70;;;;;;4924856;29;20550;-73
2022/06/19 11:54:14;;;;;;;9.23;2.00;;;19.80;93.60;;;;;;4921223;29;20143;-73
2022/06/19 11:56:40;;;;;;;9.13;1.48;;;19.50;94.00;;;;;;4925013;29;20102;-72
2022/06/19 11:59:41;;;;;;;8.13;1.15;;;19.40;97.10;;;;;;4924221;29;20044;-72
2022/06/19 12:02:25;;;;;;;7.82;1.92;;;19.60;95.80;;;;;;4926193;29;20027;-72
2022/06/19 12:04:56;;;;;;;7.80;1.60;;;20.00;96.70;;;;;;4908396;29;20039;-71
2022/06/19 12:07:23;;;;;;;;;;;20.40;87.10;;;;;;4917138;29;20107;-72
2022/06/19 12:10:20;;;;;;;6.07;1.10;;;21.10;98.70;;;;;;4924282;29;19914;-72
2022/06/19 12:12:56;;;;;;;7.50;1.30;;;22.00;97.90;;;;;;4925955;29;20047;-72
2022/06/19 12:15:31;;;;;;;3.88;0.90;;;23.30;86.20;;;;;;4921115;29;20520;-72
2022/06/19 12:18:03;;;;;;;9.75;2.00;;;23.60;70.40;;;;;;4932798;29;20506;-72
2022/06/19 12:20:31;;;;;;;5.88;1.20;;;23.50;62.30;;;;;;4918216;29;20034;-72
2022/06/19 12:23:21;;;;;;;4.57;0.93;;;23.20;60.90;;;;;;4912144;29;20111;-72
2022/06/19 12:25:58;;;;;;;4.82;1.05;;;23.60;73.60;;;;;;4910050;29;20543;-72
2022/06/19 12:28:51;;;;;;;9.25;1.23;;;23.70;73.30;;;;;;4576608;29;10001554;-71
2022/06/19 12:31:22;;;;;;;5.50;1.25;;;23.50;61.50;;;;;;4912682;29;20028;-71
2022/06/19 12:33:55;;;;;;;10.57;1.70;;;23.30;64.60;;;;;;4910474;29;20134;-72
2022/06/19 12:36:27;;;;;;;6.22;1.80;;;23.00;66.10;;;;;;4911878;29;20064;-72
2022/06/19 12:38:53;;;;;;;4.32;1.02;;;22.80;79.90;;;;;;4922633;29;20051;-72
2022/06/19 12:41:34;;;;;;;8.30;1.73;;;22.50;73.70;;;;;;4915998;29;20024;-72
2022/06/19 12:44:37;;;;;;;6.22;1.45;;;22.50;71.80;;;;;;4922567;29;20247;-70
2022/06/19 12:47:14;;;;;;;3.58;1.05;;;22.50;57.20;;;;;;4922744;29;20031;-72
2022/06/19 12:50:08;;;;;;;3.90;1.00;;;22.00;62.80;;;;;;4920467;29;20095;-71
2022/06/19 12:53:12;;;;;;;3.92;0.77;;;22.40;61.20;;;;;;4913919;29;20032;-72
2022/06/19 12:55:43;;;;;;;6.25;1.13;;;22.40;76.20;;;;;;4911167;29;20115;-72
2022/06/19 12:58:33;;;;;;;6.45;1.08;;;22.60;61.50;;;;;;4911914;29;20036;-72
2022/06/19 13:01:04;;;;;;;6.28;1.23;;;22.00;61.90;;;;;;4916260;29;20110;-71
2022/06/19 13:03:48;;;;;;;4.57;1.00;;;21.70;71.10;;;;;;4890618;29;20032;-73
2022/06/19 13:06:21;;;;;;;3.15;0.90;;;21.50;62.60;;;;;;4916383;29;20524;-71
2022/06/19 13:08:58;;;;;;;4.22;1.05;;;21.50;75.00;;;;;;4919984;29;20038;-71
2022/06/19 13:11:46;;;;;;;4.95;1.02;;;21.50;64.50;;;;;;4576928;28;10000417;-71
2022/06/19 13:14:38;;;;;;;3.15;0.73;;;21.70;57.20;;;;;;4918008;29;20055;-72
2022/06/19 13:17:17;;;;;;;6.85;1.10;;;21.70;68.50;;;;;;4913891;29;20619;-73